sensor_id;sensor_type;location;lat;lon;timestamp;temperature;humidity
36186;DHT22;22228;53.222;7.446;2022-08-19T00:00:59;14.30;99.90
36186;DHT22;22228;53.222;7.446;2022-08-19T00:03:20;14.30;99.90
36186;DHT22;22228;53.222;7.446;2022-08-19T00:05:41;14.20;99.90
36186;DHT22;22228;53.222;7.446;2022-08-19T00:08:02;14.20;99.90
36186;DHT22;22228;53.222;7.446;2022-08-19T00:10:22;14.20;99.90
36186;DHT22;22228;53.222;7.446;2022-08-19T00:12:43;14.10;99.90
36186;DHT22;22228;53.222;7.446;2022-08-19T00:15:06;14.20;99.90
36186;DHT22;22228;53.222;7.446;2022-08-19T00:17:26;14.20;99.90
36186;DHT22;22228;53.222;7.446;2022-08-19T00:19:48;14.20;99.90
36186;DHT22;22228;53.222;7.446;2022-08-19T00:22:08;14.20;99.90
36186;DHT22;22228;53.222;7.446;2022-08-19T00:24:29;14.10;99.90
36186;DHT22;22228;53.222;7.446;2022-08-19T00:26:50;14.10;99.90
36186;DHT22;22228;53.222;7.446;2022-08-19T00:29:12;14.10;99.90
36186;DHT22;22228;53.222;7.446;2022-08-19T00:31:33;14.10;99.90
36186;DHT22;22228;53.222;7.446;2022-08-19T00:33:54;14.10;99.90
36186;DHT22;22228;53.222;7.446;2022-08-19T00:36:16;14.10;99.90
36186;DHT22;22228;53.222;7.446;2022-08-19T00:38:39;14.00;99.90
36186;DHT22;22228;53.222;7.446;2022-08-19T00:41:02;14.00;99.90
36186;DHT22;22228;53.222;7.446;2022-08-19T00:43:24;13.90;99.90
36186;DHT22;22228;53.222;7.446;2022-08-19T00:45:45;13.90;99.90
36186;DHT22;22228;53.222;7.446;2022-08-19T00:48:06;13.80;99.90
36186;DHT22;22228;53.222;7.446;2022-08-19T00:50:26;13.80;99.90
36186;DHT22;22228;53.222;7.446;2022-08-19T00:52:50;13.80;99.90
36186;DHT22;22228;53.222;7.446;2022-08-19T00:55:13;13.80;99.90
36186;DHT22;22228;53.222;7.446;2022-08-19T00:57:36;13.80;99.90
36186;DHT22;22228;53.222;7.446;2022-08-19T00:59:59;13.90;99.90
36186;DHT22;22228;53.222;7.446;2022-08-19T01:02:21;13.90;99.90
36186;DHT22;22228;53.222;7.446;2022-08-19T01:04:42;13.90;99.90
36186;DHT22;22228;53.222;7.446;2022-08-19T01:07:03;14.10;99.90
36186;DHT22;22228;53.222;7.446;2022-08-19T01:09:25;14.20;99.90
36186;DHT22;22228;53.222;7.446;2022-08-19T01:11:45;14.10;99.90
36186;DHT22;22228;53.222;7.446;2022-08-19T01:14:07;14.10;99.90
36186;DHT22;22228;53.222;7.446;2022-08-19T01:16:28;14.00;99.90
36186;DHT22;22228;53.222;7.446;2022-08-19T01:18:50;13.90;99.90
36186;DHT22;22228;53.222;7.446;2022-08-19T01:21:15;13.80;99.90
36186;DHT22;22228;53.222;7.446;2022-08-19T01:23:37;13.80;99.90
36186;DHT22;22228;53.222;7.446;2022-08-19T01:26:03;13.70;99.90
36186;DHT22;22228;53.222;7.446;2022-08-19T01:28:26;13.70;99.90
36186;DHT22;22228;53.222;7.446;2022-08-19T01:30:47;13.60;99.90
36186;DHT22;22228;53.222;7.446;2022-08-19T01:33:09;13.70;99.90
36186;DHT22;22228;53.222;7.446;2022-08-19T01:35:30;13.70;99.90
36186;DHT22;22228;53.222;7.446;2022-08-19T01:37:53;13.60;99.90
36186;DHT22;22228;53.222;7.446;2022-08-19T01:40:15;13.60;99.90
36186;DHT22;22228;53.222;7.446;2022-08-19T01:42:35;13.60;99.90
36186;DHT22;22228;53.222;7.446;2022-08-19T01:44:56;13.50;99.90
36186;DHT22;22228;53.222;7.446;2022-08-19T01:47:17;13.50;99.90
36186;DHT22;22228;53.222;7.446;2022-08-19T01:49:37;13.50;99.90
36186;DHT22;22228;53.222;7.446;2022-08-19T01:51:59;13.50;99.90
36186;DHT22;22228;53.222;7.446;2022-08-19T01:54:21;13.40;99.90
36186;DHT22;22228;53.222;7.446;2022-08-19T01:56:43;13.50;99.90
36186;DHT22;22228;53.222;7.446;2022-08-19T01:59:08;13.50;99.90
36186;DHT22;22228;53.222;7.446;2022-08-19T02:01:29;13.40;99.90
36186;DHT22;22228;53.222;7.446;2022-08-19T02:03:51;13.50;99.90
36186;DHT22;22228;53.222;7.446;2022-08-19T02:06:13;13.40;99.90
36186;DHT22;22228;53.222;7.446;2022-08-19T02:08:37;13.40;99.90
36186;DHT22;22228;53.222;7.446;2022-08-19T02:10:58;13.50;99.90
36186;DHT22;22228;53.222;7.446;2022-08-19T02:13:20;13.50;99.90
36186;DHT22;22228;53.222;7.446;2022-08-19T02:15:41;13.60;99.90
36186;DHT22;22228;53.222;7.446;2022-08-19T02:18:01;13.50;99.90
36186;DHT22;22228;53.222;7.446;2022-08-19T02:20:22;13.50;99.90
36186;DHT22;22228;53.222;7.446;2022-08-19T02:22:43;13.50;99.90
36186;DHT22;22228;53.222;7.446;2022-08-19T02:25:04;13.50;99.90
36186;DHT22;22228;53.222;7.446;2022-08-19T02:27:25;13.60;99.90
36186;DHT22;22228;53.222;7.446;2022-08-19T02:29:48;13.50;99.90
36186;DHT22;22228;53.222;7.446;2022-08-19T02:32:08;13.60;99.90
36186;DHT22;22228;53.222;7.446;2022-08-19T02:34:29;13.70;99.90
36186;DHT22;22228;53.222;7.446;2022-08-19T02:36:50;13.80;99.90
36186;DHT22;22228;53.222;7.446;2022-08-19T02:39:10;13.80;99.90
36186;DHT22;22228;53.222;7.446;2022-08-19T02:41:32;13.70;99.90
36186;DHT22;22228;53.222;7.446;2022-08-19T02:43:53;13.60;99.90
36186;DHT22;22228;53.222;7.446;2022-08-19T02:46:17;13.60;99.90
36186;DHT22;22228;53.222;7.446;2022-08-19T02:48:39;13.60;99.90
36186;DHT22;22228;53.222;7.446;2022-08-19T02:50:59;13.60;99.90
36186;DHT22;22228;53.222;7.446;2022-08-19T02:53:20;13.70;99.90
36186;DHT22;22228;53.222;7.446;2022-08-19T02:55:46;13.70;99.90
36186;DHT22;22228;53.222;7.446;2022-08-19T02:58:06;13.70;99.90
36186;DHT22;22228;53.222;7.446;2022-08-19T03:00:27;13.70;99.90
36186;DHT22;22228;53.222;7.446;2022-08-19T03:02:49;13.70;99.90
36186;DHT22;22228;53.222;7.446;2022-08-19T03:05:10;13.60;99.90
36186;DHT22;22228;53.222;7.446;2022-08-19T03:07:30;13.60;99.90
36186;DHT22;22228;53.222;7.446;2022-08-19T03:09:51;13.50;99.90
36186;DHT22;22228;53.222;7.446;2022-08-19T03:12:11;13.40;99.90
36186;DHT22;22228;53.222;7.446;2022-08-19T03:14:32;13.40;99.90
36186;DHT22;22228;53.222;7.446;2022-08-19T03:16:53;13.50;99.90
36186;DHT22;22228;53.222;7.446;2022-08-19T03:19:16;13.50;99.90
36186;DHT22;22228;53.222;7.446;2022-08-19T03:21:37;13.50;99.90
36186;DHT22;22228;53.222;7.446;2022-08-19T03:23:59;13.60;99.90
36186;DHT22;22228;53.222;7.446;2022-08-19T03:26:20;13.70;99.90
36186;DHT22;22228;53.222;7.446;2022-08-19T03:28:41;13.70;99.90
36186;DHT22;22228;53.222;7.446;2022-08-19T03:31:04;13.80;99.90
36186;DHT22;22228;53.222;7.446;2022-08-19T03:33:26;13.80;99.90
36186;DHT22;22228;53.222;7.446;2022-08-19T03:35:59;13.80;99.90
36186;DHT22;22228;53.222;7.446;2022-08-19T03:38:20;13.80;99.90
36186;DHT22;22228;53.222;7.446;2022-08-19T03:40:40;13.80;99.90
36186;DHT22;22228;53.222;7.446;2022-08-19T03:43:01;13.80;99.90
36186;DHT22;22228;53.222;7.446;2022-08-19T03:45:23;13.80;99.90
36186;DHT22;22228;53.222;7.446;2022-08-19T03:47:43;13.70;99.90
36186;DHT22;22228;53.222;7.446;2022-08-19T03:50:04;13.60;99.90
36186;DHT22;22228;53.222;7.446;2022-08-19T03:52:26;13.50;99.90
36186;DHT22;22228;53.222;7.446;2022-08-19T03:54:46;13.60;99.90
36186;DHT22;22228;53.222;7.446;2022-08-19T03:57:07;13.70;99.90
36186;DHT22;22228;53.222;7.446;2022-08-19T03:59:30;13.90;99.90
36186;DHT22;22228;53.222;7.446;2022-08-19T04:01:52;13.90;99.90
36186;DHT22;22228;53.222;7.446;2022-08-19T04:04:12;13.90;99.90
36186;DHT22;22228;53.222;7.446;2022-08-19T04:06:34;13.90;99.90
36186;DHT22;22228;53.222;7.446;2022-08-19T04:08:57;14.00;99.90
36186;DHT22;22228;53.222;7.446;2022-08-19T04:11:20;14.00;99.90
36186;DHT22;22228;53.222;7.446;2022-08-19T04:13:41;14.00;99.90
36186;DHT22;22228;53.222;7.446;2022-08-19T04:16:03;14.00;99.90
36186;DHT22;22228;53.222;7.446;2022-08-19T04:18:23;13.90;99.90
36186;DHT22;22228;53.222;7.446;2022-08-19T04:20:46;13.90;99.90
36186;DHT22;22228;53.222;7.446;2022-08-19T04:23:08;13.90;99.90
36186;DHT22;22228;53.222;7.446;2022-08-19T04:25:35;13.80;99.90
36186;DHT22;22228;53.222;7.446;2022-08-19T04:27:55;13.80;99.90
36186;DHT22;22228;53.222;7.446;2022-08-19T04:30:16;13.70;99.90
36186;DHT22;22228;53.222;7.446;2022-08-19T04:32:36;13.70;99.90
36186;DHT22;22228;53.222;7.446;2022-08-19T04:34:57;13.70;99.90
36186;DHT22;22228;53.222;7.446;2022-08-19T04:37:18;13.70;99.90
36186;DHT22;22228;53.222;7.446;2022-08-19T04:39:39;13.60;99.90
36186;DHT22;22228;53.222;7.446;2022-08-19T04:42:18;13.60;99.90
36186;DHT22;22228;53.222;7.446;2022-08-19T04:44:57;13.60;99.90
36186;DHT22;22228;53.222;7.446;2022-08-19T04:47:17;13.60;99.90
36186;DHT22;22228;53.222;7.446;2022-08-19T04:49:38;13.60;99.90
36186;DHT22;22228;53.222;7.446;2022-08-19T04:51:58;13.60;99.90
36186;DHT22;22228;53.222;7.446;2022-08-19T04:54:19;13.60;99.90
36186;DHT22;22228;53.222;7.446;2022-08-19T04:56:41;13.50;99.90
36186;DHT22;22228;53.222;7.446;2022-08-19T04:59:03;13.50;99.90
36186;DHT22;22228;53.222;7.446;2022-08-19T05:01:26;13.50;99.90
36186;DHT22;22228;53.222;7.446;2022-08-19T05:03:47;13.50;99.90
36186;DHT22;22228;53.222;7.446;2022-08-19T05:06:11;13.50;99.90
36186;DHT22;22228;53.222;7.446;2022-08-19T05:08:31;13.50;99.90
36186;DHT22;22228;53.222;7.446;2022-08-19T05:10:52;13.50;99.90
36186;DHT22;22228;53.222;7.446;2022-08-19T05:13:13;13.50;99.90
36186;DHT22;22228;53.222;7.446;2022-08-19T05:15:35;13.60;99.90
36186;DHT22;22228;53.222;7.446;2022-08-19T05:17:55;13.60;99.90
36186;DHT22;22228;53.222;7.446;2022-08-19T05:20:33;13.50;99.90
36186;DHT22;22228;53.222;7.446;2022-08-19T05:23:12;13.40;99.90
36186;DHT22;22228;53.222;7.446;2022-08-19T05:25:39;13.40;99.90
36186;DHT22;22228;53.222;7.446;2022-08-19T05:27:59;13.60;99.90
36186;DHT22;22228;53.222;7.446;2022-08-19T05:30:20;13.60;99.90
36186;DHT22;22228;53.222;7.446;2022-08-19T05:32:42;13.50;99.90
36186;DHT22;22228;53.222;7.446;2022-08-19T05:35:03;13.60;99.90
36186;DHT22;22228;53.222;7.446;2022-08-19T05:37:24;13.60;99.90
36186;DHT22;22228;53.222;7.446;2022-08-19T05:39:45;13.50;99.90
36186;DHT22;22228;53.222;7.446;2022-08-19T05:42:08;13.50;99.90
36186;DHT22;22228;53.222;7.446;2022-08-19T05:44:31;13.50;99.90
36186;DHT22;22228;53.222;7.446;2022-08-19T05:46:52;13.50;99.90
36186;DHT22;22228;53.222;7.446;2022-08-19T05:49:15;13.50;99.90
36186;DHT22;22228;53.222;7.446;2022-08-19T05:51:36;13.40;99.90
36186;DHT22;22228;53.222;7.446;2022-08-19T05:53:57;13.50;99.90
36186;DHT22;22228;53.222;7.446;2022-08-19T05:56:18;13.50;99.90
36186;DHT22;22228;53.222;7.446;2022-08-19T05:58:39;13.60;99.90
36186;DHT22;22228;53.222;7.446;2022-08-19T06:01:01;13.70;99.90
36186;DHT22;22228;53.222;7.446;2022-08-19T06:03:24;13.80;99.90
36186;DHT22;22228;53.222;7.446;2022-08-19T06:05:46;13.90;99.90
36186;DHT22;22228;53.222;7.446;2022-08-19T06:08:06;14.00;99.90
36186;DHT22;22228;53.222;7.446;2022-08-19T06:10:27;14.10;99.90
36186;DHT22;22228;53.222;7.446;2022-08-19T06:12:48;14.10;99.90
36186;DHT22;22228;53.222;7.446;2022-08-19T06:15:11;14.10;99.90
36186;DHT22;22228;53.222;7.446;2022-08-19T06:17:31;14.20;99.90
36186;DHT22;22228;53.222;7.446;2022-08-19T06:19:53;14.20;99.90
36186;DHT22;22228;53.222;7.446;2022-08-19T06:22:15;14.30;99.90
36186;DHT22;22228;53.222;7.446;2022-08-19T06:24:35;14.30;99.90
36186;DHT22;22228;53.222;7.446;2022-08-19T06:26:57;14.40;99.90
36186;DHT22;22228;53.222;7.446;2022-08-19T06:29:21;14.40;99.90
36186;DHT22;22228;53.222;7.446;2022-08-19T06:31:43;14.50;99.90
36186;DHT22;22228;53.222;7.446;2022-08-19T06:34:05;14.60;99.90
36186;DHT22;22228;53.222;7.446;2022-08-19T06:36:28;14.70;99.90
36186;DHT22;22228;53.222;7.446;2022-08-19T06:38:51;14.70;99.90
36186;DHT22;22228;53.222;7.446;2022-08-19T06:41:12;14.80;99.90
36186;DHT22;22228;53.222;7.446;2022-08-19T06:43:32;15.00;99.90
36186;DHT22;22228;53.222;7.446;2022-08-19T06:45:52;15.00;99.90
36186;DHT22;22228;53.222;7.446;2022-08-19T06:48:13;15.20;99.90
36186;DHT22;22228;53.222;7.446;2022-08-19T06:50:33;15.30;99.90
36186;DHT22;22228;53.222;7.446;2022-08-19T06:52:54;15.50;99.90
36186;DHT22;22228;53.222;7.446;2022-08-19T06:55:15;15.60;99.90
36186;DHT22;22228;53.222;7.446;2022-08-19T06:57:36;15.70;99.90
36186;DHT22;22228;53.222;7.446;2022-08-19T06:59:56;15.90;99.90
36186;DHT22;22228;53.222;7.446;2022-08-19T07:02:19;16.00;99.90
36186;DHT22;22228;53.222;7.446;2022-08-19T07:04:39;16.20;99.90
36186;DHT22;22228;53.222;7.446;2022-08-19T07:07:04;16.40;99.90
36186;DHT22;22228;53.222;7.446;2022-08-19T07:09:27;16.50;99.90
36186;DHT22;22228;53.222;7.446;2022-08-19T07:11:51;16.60;99.90
36186;DHT22;22228;53.222;7.446;2022-08-19T07:14:13;16.80;99.90
36186;DHT22;22228;53.222;7.446;2022-08-19T07:16:34;17.00;99.90
36186;DHT22;22228;53.222;7.446;2022-08-19T07:18:55;17.10;99.90
36186;DHT22;22228;53.222;7.446;2022-08-19T07:21:17;17.30;99.90
36186;DHT22;22228;53.222;7.446;2022-08-19T07:23:38;17.40;99.90
36186;DHT22;22228;53.222;7.446;2022-08-19T07:26:05;17.60;99.90
36186;DHT22;22228;53.222;7.446;2022-08-19T07:28:27;17.70;99.90
36186;DHT22;22228;53.222;7.446;2022-08-19T07:30:48;17.80;99.90
36186;DHT22;22228;53.222;7.446;2022-08-19T07:33:09;18.00;99.90
36186;DHT22;22228;53.222;7.446;2022-08-19T07:35:29;18.10;99.90
36186;DHT22;22228;53.222;7.446;2022-08-19T07:37:51;18.30;99.90
36186;DHT22;22228;53.222;7.446;2022-08-19T07:40:12;18.40;99.90
36186;DHT22;22228;53.222;7.446;2022-08-19T07:42:33;18.50;99.90
36186;DHT22;22228;53.222;7.446;2022-08-19T07:44:55;18.60;99.90
36186;DHT22;22228;53.222;7.446;2022-08-19T07:47:16;18.70;99.90
36186;DHT22;22228;53.222;7.446;2022-08-19T07:49:37;18.90;99.90
36186;DHT22;22228;53.222;7.446;2022-08-19T07:52:00;19.00;99.90
36186;DHT22;22228;53.222;7.446;2022-08-19T07:54:22;19.00;99.90
36186;DHT22;22228;53.222;7.446;2022-08-19T07:56:43;19.10;99.90
36186;DHT22;22228;53.222;7.446;2022-08-19T07:59:04;19.10;99.90
36186;DHT22;22228;53.222;7.446;2022-08-19T08:01:26;19.20;99.90
36186;DHT22;22228;53.222;7.446;2022-08-19T08:03:47;19.20;99.90
36186;DHT22;22228;53.222;7.446;2022-08-19T08:06:26;19.30;99.90
36186;DHT22;22228;53.222;7.446;2022-08-19T08:09:04;19.50;99.90
36186;DHT22;22228;53.222;7.446;2022-08-19T08:11:42;19.60;99.90
36186;DHT22;22228;53.222;7.446;2022-08-19T08:14:09;19.80;99.90
36186;DHT22;22228;53.222;7.446;2022-08-19T08:16:34;19.90;99.90
36186;DHT22;22228;53.222;7.446;2022-08-19T08:18:54;20.00;99.90
36186;DHT22;22228;53.222;7.446;2022-08-19T08:21:14;20.10;99.90
36186;DHT22;22228;53.222;7.446;2022-08-19T08:23:35;20.20;99.90
36186;DHT22;22228;53.222;7.446;2022-08-19T08:25:57;20.30;99.90
36186;DHT22;22228;53.222;7.446;2022-08-19T08:28:18;20.40;99.90
36186;DHT22;22228;53.222;7.446;2022-08-19T08:30:39;20.50;99.90
36186;DHT22;22228;53.222;7.446;2022-08-19T08:33:02;20.50;99.90
36186;DHT22;22228;53.222;7.446;2022-08-19T08:35:23;20.60;99.90
36186;DHT22;22228;53.222;7.446;2022-08-19T08:37:45;20.70;99.90
36186;DHT22;22228;53.222;7.446;2022-08-19T08:40:16;20.80;99.90
36186;DHT22;22228;53.222;7.446;2022-08-19T08:42:43;21.00;99.90
36186;DHT22;22228;53.222;7.446;2022-08-19T08:45:12;20.90;99.90
36186;DHT22;22228;53.222;7.446;2022-08-19T08:47:36;21.00;99.90
36186;DHT22;22228;53.222;7.446;2022-08-19T08:50:02;21.10;99.90
36186;DHT22;22228;53.222;7.446;2022-08-19T08:52:26;21.20;99.90
36186;DHT22;22228;53.222;7.446;2022-08-19T08:54:50;21.30;99.90
36186;DHT22;22228;53.222;7.446;2022-08-19T08:57:15;21.40;99.90
36186;DHT22;22228;53.222;7.446;2022-08-19T08:59:39;21.50;99.90
36186;DHT22;22228;53.222;7.446;2022-08-19T09:02:01;21.60;99.90
36186;DHT22;22228;53.222;7.446;2022-08-19T09:04:21;21.70;99.90
36186;DHT22;22228;53.222;7.446;2022-08-19T09:06:53;21.70;99.90
36186;DHT22;22228;53.222;7.446;2022-08-19T09:09:18;21.80;99.90
36186;DHT22;22228;53.222;7.446;2022-08-19T09:11:47;21.90;99.90
36186;DHT22;22228;53.222;7.446;2022-08-19T09:14:16;22.10;99.90
36186;DHT22;22228;53.222;7.446;2022-08-19T09:16:38;22.30;99.90
36186;DHT22;22228;53.222;7.446;2022-08-19T09:19:02;22.30;99.90
36186;DHT22;22228;53.222;7.446;2022-08-19T09:21:23;22.40;99.90
36186;DHT22;22228;53.222;7.446;2022-08-19T09:23:46;22.60;99.90
36186;DHT22;22228;53.222;7.446;2022-08-19T09:26:07;22.70;99.90
36186;DHT22;22228;53.222;7.446;2022-08-19T09:28:29;22.80;99.90
36186;DHT22;22228;53.222;7.446;2022-08-19T09:30:51;22.80;99.90
36186;DHT22;22228;53.222;7.446;2022-08-19T09:33:11;22.80;99.90
36186;DHT22;22228;53.222;7.446;2022-08-19T09:35:33;22.80;99.90
36186;DHT22;22228;53.222;7.446;2022-08-19T09:37:54;22.80;99.90
36186;DHT22;22228;53.222;7.446;2022-08-19T09:40:18;22.80;99.90
36186;DHT22;22228;53.222;7.446;2022-08-19T09:42:39;22.90;99.90
36186;DHT22;22228;53.222;7.446;2022-08-19T09:45:02;22.90;99.90
36186;DHT22;22228;53.222;7.446;2022-08-19T09:47:23;22.80;99.90
36186;DHT22;22228;53.222;7.446;2022-08-19T09:49:43;22.90;99.90
36186;DHT22;22228;53.222;7.446;2022-08-19T09:52:04;23.00;99.90
36186;DHT22;22228;53.222;7.446;2022-08-19T09:54:25;23.20;99.90
36186;DHT22;22228;53.222;7.446;2022-08-19T09:56:47;23.20;99.90
36186;DHT22;22228;53.222;7.446;2022-08-19T09:59:07;23.20;99.90
36186;DHT22;22228;53.222;7.446;2022-08-19T10:01:30;23.30;99.90
36186;DHT22;22228;53.222;7.446;2022-08-19T10:03:53;23.50;99.90
36186;DHT22;22228;53.222;7.446;2022-08-19T10:06:13;23.70;99.90
36186;DHT22;22228;53.222;7.446;2022-08-19T10:08:35;23.80;99.90
36186;DHT22;22228;53.222;7.446;2022-08-19T10:10:56;23.80;99.90
36186;DHT22;22228;53.222;7.446;2022-08-19T10:13:19;23.90;99.90
36186;DHT22;22228;53.222;7.446;2022-08-19T10:15:42;24.00;99.90
36186;DHT22;22228;53.222;7.446;2022-08-19T10:18:03;24.20;99.90
36186;DHT22;22228;53.222;7.446;2022-08-19T10:20:23;24.30;99.90
36186;DHT22;22228;53.222;7.446;2022-08-19T10:22:44;24.40;99.90
36186;DHT22;22228;53.222;7.446;2022-08-19T10:25:06;24.50;99.90
36186;DHT22;22228;53.222;7.446;2022-08-19T10:27:27;24.80;99.90
36186;DHT22;22228;53.222;7.446;2022-08-19T10:29:49;25.20;99.90
36186;DHT22;22228;53.222;7.446;2022-08-19T10:32:09;25.40;99.90
36186;DHT22;22228;53.222;7.446;2022-08-19T10:34:30;25.50;99.90
36186;DHT22;22228;53.222;7.446;2022-08-19T10:36:51;25.70;99.90
36186;DHT22;22228;53.222;7.446;2022-08-19T10:39:11;25.90;99.90
36186;DHT22;22228;53.222;7.446;2022-08-19T10:41:34;26.20;99.90
36186;DHT22;22228;53.222;7.446;2022-08-19T10:43:56;26.20;99.90
36186;DHT22;22228;53.222;7.446;2022-08-19T10:46:18;26.30;99.90
36186;DHT22;22228;53.222;7.446;2022-08-19T10:48:39;26.40;99.90
36186;DHT22;22228;53.222;7.446;2022-08-19T10:50:59;26.50;99.90
36186;DHT22;22228;53.222;7.446;2022-08-19T10:53:38;26.30;99.90
36186;DHT22;22228;53.222;7.446;2022-08-19T10:55:58;26.30;99.90
36186;DHT22;22228;53.222;7.446;2022-08-19T10:58:36;26.20;99.90
36186;DHT22;22228;53.222;7.446;2022-08-19T11:00:58;26.50;99.90
36186;DHT22;22228;53.222;7.446;2022-08-19T11:03:20;26.70;99.90
36186;DHT22;22228;53.222;7.446;2022-08-19T11:05:40;27.10;99.90
36186;DHT22;22228;53.222;7.446;2022-08-19T11:08:01;27.50;99.90
36186;DHT22;22228;53.222;7.446;2022-08-19T11:10:21;27.60;99.90
36186;DHT22;22228;53.222;7.446;2022-08-19T11:12:42;28.00;99.90
36186;DHT22;22228;53.222;7.446;2022-08-19T11:15:05;28.30;99.90
36186;DHT22;22228;53.222;7.446;2022-08-19T11:17:26;28.90;99.90
36186;DHT22;22228;53.222;7.446;2022-08-19T11:19:48;29.50;99.90
36186;DHT22;22228;53.222;7.446;2022-08-19T11:22:09;29.90;99.90
36186;DHT22;22228;53.222;7.446;2022-08-19T11:24:30;30.00;99.90
36186;DHT22;22228;53.222;7.446;2022-08-19T11:26:54;30.20;99.90
36186;DHT22;22228;53.222;7.446;2022-08-19T11:29:19;30.50;99.90
36186;DHT22;22228;53.222;7.446;2022-08-19T11:31:42;31.10;99.90
36186;DHT22;22228;53.222;7.446;2022-08-19T11:34:05;31.50;99.90
36186;DHT22;22228;53.222;7.446;2022-08-19T11:36:29;31.80;99.90
36186;DHT22;22228;53.222;7.446;2022-08-19T11:38:51;32.10;99.90
36186;DHT22;22228;53.222;7.446;2022-08-19T11:41:12;32.40;99.90
36186;DHT22;22228;53.222;7.446;2022-08-19T11:43:33;32.70;99.90
36186;DHT22;22228;53.222;7.446;2022-08-19T11:45:53;33.10;99.90
36186;DHT22;22228;53.222;7.446;2022-08-19T11:48:14;33.20;99.90
36186;DHT22;22228;53.222;7.446;2022-08-19T11:50:35;32.40;99.90
36186;DHT22;22228;53.222;7.446;2022-08-19T11:52:57;31.50;99.90
36186;DHT22;22228;53.222;7.446;2022-08-19T11:55:18;30.80;99.90
36186;DHT22;22228;53.222;7.446;2022-08-19T11:57:38;30.30;99.90
36186;DHT22;22228;53.222;7.446;2022-08-19T12:00:00;30.00;99.90
36186;DHT22;22228;53.222;7.446;2022-08-19T12:02:24;29.60;99.90
36186;DHT22;22228;53.222;7.446;2022-08-19T12:04:44;29.00;99.90
36186;DHT22;22228;53.222;7.446;2022-08-19T12:07:05;28.50;99.90
36186;DHT22;22228;53.222;7.446;2022-08-19T12:09:27;28.20;99.90
36186;DHT22;22228;53.222;7.446;2022-08-19T12:11:48;28.10;99.90
36186;DHT22;22228;53.222;7.446;2022-08-19T12:14:11;28.40;99.90
36186;DHT22;22228;53.222;7.446;2022-08-19T12:16:33;28.90;99.90
36186;DHT22;22228;53.222;7.446;2022-08-19T12:18:55;29.40;99.90
36186;DHT22;22228;53.222;7.446;2022-08-19T12:21:16;30.20;99.90
36186;DHT22;22228;53.222;7.446;2022-08-19T12:23:37;31.40;99.90
36186;DHT22;22228;53.222;7.446;2022-08-19T12:25:59;32.40;99.90
36186;DHT22;22228;53.222;7.446;2022-08-19T12:28:21;33.20;99.90
36186;DHT22;22228;53.222;7.446;2022-08-19T12:30:41;33.70;99.90
36186;DHT22;22228;53.222;7.446;2022-08-19T12:33:02;34.10;99.90
36186;DHT22;22228;53.222;7.446;2022-08-19T12:35:22;34.30;99.90
36186;DHT22;22228;53.222;7.446;2022-08-19T12:37:43;33.90;99.90
36186;DHT22;22228;53.222;7.446;2022-08-19T12:40:05;33.20;99.90
36186;DHT22;22228;53.222;7.446;2022-08-19T12:42:27;32.30;99.90
36186;DHT22;22228;53.222;7.446;2022-08-19T12:44:48;31.40;99.90
36186;DHT22;22228;53.222;7.446;2022-08-19T12:47:11;30.10;99.90
36186;DHT22;22228;53.222;7.446;2022-08-19T12:49:33;29.30;99.90
36186;DHT22;22228;53.222;7.446;2022-08-19T12:51:55;28.80;99.90
36186;DHT22;22228;53.222;7.446;2022-08-19T12:54:17;28.40;99.90
36186;DHT22;22228;53.222;7.446;2022-08-19T12:56:37;29.40;99.90
36186;DHT22;22228;53.222;7.446;2022-08-19T12:59:00;29.60;99.90
36186;DHT22;22228;53.222;7.446;2022-08-19T13:01:21;30.60;99.90
36186;DHT22;22228;53.222;7.446;2022-08-19T13:03:41;31.80;99.90
36186;DHT22;22228;53.222;7.446;2022-08-19T13:06:02;32.70;99.90
36186;DHT22;22228;53.222;7.446;2022-08-19T13:08:23;33.30;99.90
36186;DHT22;22228;53.222;7.446;2022-08-19T13:10:43;33.60;99.90
36186;DHT22;22228;53.222;7.446;2022-08-19T13:13:05;33.40;99.90
36186;DHT22;22228;53.222;7.446;2022-08-19T13:15:28;33.50;99.90
36186;DHT22;22228;53.222;7.446;2022-08-19T13:17:52;34.00;99.90
36186;DHT22;22228;53.222;7.446;2022-08-19T13:20:16;34.80;99.90
36186;DHT22;22228;53.222;7.446;2022-08-19T13:22:38;34.30;99.90
36186;DHT22;22228;53.222;7.446;2022-08-19T13:24:59;33.00;99.90
36186;DHT22;22228;53.222;7.446;2022-08-19T13:27:19;31.70;99.90
36186;DHT22;22228;53.222;7.446;2022-08-19T13:29:40;30.80;99.90
36186;DHT22;22228;53.222;7.446;2022-08-19T13:32:20;30.60;99.90
36186;DHT22;22228;53.222;7.446;2022-08-19T13:34:58;32.00;99.90
36186;DHT22;22228;53.222;7.446;2022-08-19T13:37:19;33.30;99.90
36186;DHT22;22228;53.222;7.446;2022-08-19T13:39:59;32.90;99.90
36186;DHT22;22228;53.222;7.446;2022-08-19T13:42:20;31.80;99.90
36186;DHT22;22228;53.222;7.446;2022-08-19T13:44:41;31.10;99.90
36186;DHT22;22228;53.222;7.446;2022-08-19T13:47:02;30.20;99.90
36186;DHT22;22228;53.222;7.446;2022-08-19T13:49:28;29.50;99.90
36186;DHT22;22228;53.222;7.446;2022-08-19T13:51:50;28.90;99.90
36186;DHT22;22228;53.222;7.446;2022-08-19T13:54:11;28.50;99.90
36186;DHT22;22228;53.222;7.446;2022-08-19T13:56:31;28.30;99.90
36186;DHT22;22228;53.222;7.446;2022-08-19T13:58:52;28.20;99.90
36186;DHT22;22228;53.222;7.446;2022-08-19T14:01:19;28.20;99.90
36186;DHT22;22228;53.222;7.446;2022-08-19T14:03:39;28.20;99.90
36186;DHT22;22228;53.222;7.446;2022-08-19T14:06:02;28.20;99.90
36186;DHT22;22228;53.222;7.446;2022-08-19T14:08:22;28.20;99.90
36186;DHT22;22228;53.222;7.446;2022-08-19T14:10:43;28.10;99.90
36186;DHT22;22228;53.222;7.446;2022-08-19T14:13:04;28.10;99.90
36186;DHT22;22228;53.222;7.446;2022-08-19T14:15:25;28.10;99.90
36186;DHT22;22228;53.222;7.446;2022-08-19T14:17:46;28.20;99.90
36186;DHT22;22228;53.222;7.446;2022-08-19T14:20:09;28.20;99.90
36186;DHT22;22228;53.222;7.446;2022-08-19T14:22:31;28.30;99.90
36186;DHT22;22228;53.222;7.446;2022-08-19T14:24:52;28.40;99.90
36186;DHT22;22228;53.222;7.446;2022-08-19T14:27:12;28.50;99.90
36186;DHT22;22228;53.222;7.446;2022-08-19T14:29:33;28.40;99.90
36186;DHT22;22228;53.222;7.446;2022-08-19T14:31:54;28.40;99.90
36186;DHT22;22228;53.222;7.446;2022-08-19T14:34:15;28.20;99.90
36186;DHT22;22228;53.222;7.446;2022-08-19T14:36:36;28.30;99.90
36186;DHT22;22228;53.222;7.446;2022-08-19T14:38:57;28.20;99.90
36186;DHT22;22228;53.222;7.446;2022-08-19T14:41:21;28.30;99.90
36186;DHT22;22228;53.222;7.446;2022-08-19T14:43:42;28.20;99.90
36186;DHT22;22228;53.222;7.446;2022-08-19T14:46:05;28.10;99.90
36186;DHT22;22228;53.222;7.446;2022-08-19T14:48:26;28.20;99.90
36186;DHT22;22228;53.222;7.446;2022-08-19T14:50:47;28.30;99.90
36186;DHT22;22228;53.222;7.446;2022-08-19T14:53:08;28.30;99.90
36186;DHT22;22228;53.222;7.446;2022-08-19T14:55:30;28.20;99.90
36186;DHT22;22228;53.222;7.446;2022-08-19T14:57:51;28.10;99.90